Time;durP1;ratioP1;P1;durP2;ratioP2;P2;SDS_P1;SDS_P2;PMS_P1;PMS_P2;Temp;Humidity;BMP_temperature;BMP_pressure;BME280_temperature;BME280_humidity;BME280_pressure;Samples;Min_cycle;Max_cycle;Signal;HPM_P1;HPM_P2
2022/10/22 00:00:15;;;;;;;6.47;5.35;;;22.30;58.60;;;;;;5031716;28;20029;-65
2022/10/22 00:02:41;;;;;;;7.25;3.22;;;22.10;58.50;;;;;;5015365;28;20037;-65
2022/10/22 00:05:08;;;;;;;4.47;3.00;;;22.20;58.70;;;;;;5016906;28;20483;-64
2022/10/22 00:07:34;;;;;;;5.20;2.20;;;22.10;58.80;;;;;;5031486;28;20059;-65
2022/10/22 00:10:01;;;;;;;4.72;2.53;;;22.10;58.60;;;;;;5034750;28;20037;-65
2022/10/22 00:12:27;;;;;;;5.82;2.50;;;22.00;58.60;;;;;;5034863;28;20471;-65
2022/10/22 00:14:53;;;;;;;4.20;2.22;;;22.00;58.60;;;;;;5034156;28;20037;-65
2022/10/22 00:17:19;;;;;;;4.90;2.33;;;22.10;58.80;;;;;;5032849;28;20037;-65
2022/10/22 00:19:45;;;;;;;6.75;2.92;;;21.90;58.80;;;;;;5032817;28;20026;-65
2022/10/22 00:22:11;;;;;;;4.15;2.47;;;21.90;59.00;;;;;;5033977;28;20377;-66
2022/10/22 00:24:38;;;;;;;5.40;1.85;;;22.00;59.00;;;;;;5015823;28;20120;-65
2022/10/22 00:27:06;;;;;;;4.90;2.60;;;22.00;58.90;;;;;;5034210;28;20136;-64
2022/10/22 00:29:32;;;;;;;3.97;2.30;;;22.00;58.90;;;;;;5033731;28;20541;-65
2022/10/22 00:31:58;;;;;;;4.65;2.10;;;22.10;58.70;;;;;;5032302;28;20037;-65
2022/10/22 00:34:25;;;;;;;5.70;2.13;;;22.10;58.60;;;;;;5034127;28;20516;-65
2022/10/22 00:36:51;;;;;;;5.43;2.45;;;22.10;58.60;;;;;;5051570;28;20032;-65
2022/10/22 00:39:20;;;;;;;5.22;2.47;;;22.10;58.50;;;;;;5054370;28;20040;-65
2022/10/22 00:41:49;;;;;;;4.45;2.55;;;22.20;58.50;;;;;;5054747;28;20453;-65
2022/10/22 00:44:52;;;;;;;3.55;1.88;;;22.10;58.40;;;;;;5041092;28;20056;-65
2022/10/22 00:47:21;;;;;;;3.75;2.15;;;22.00;58.50;;;;;;5031898;28;20044;-65
2022/10/22 00:49:48;;;;;;;3.40;2.10;;;22.10;58.50;;;;;;5034530;28;20971;-65
2022/10/22 00:52:14;;;;;;;2.78;1.90;;;22.10;58.50;;;;;;5039440;28;20108;-65
2022/10/22 00:54:41;;;;;;;8.32;2.30;;;21.90;58.40;;;;;;5033375;28;20121;-65
2022/10/22 00:57:08;;;;;;;5.30;3.25;;;21.90;58.60;;;;;;5032914;28;20039;-65
2022/10/22 00:59:35;;;;;;;3.28;2.15;;;21.90;58.70;;;;;;5031553;28;20057;-65
2022/10/22 01:02:01;;;;;;;4.65;2.25;;;22.00;58.80;;;;;;5032947;28;20056;-64
2022/10/22 01:04:27;;;;;;;5.85;2.15;;;21.90;58.80;;;;;;5032214;28;20033;-65
2022/10/22 01:06:53;;;;;;;3.10;2.05;;;21.80;58.60;;;;;;5053809;28;20057;-65
2022/10/22 01:09:37;;;;;;;4.35;1.88;;;21.80;58.80;;;;;;5035546;28;20034;-65
2022/10/22 01:12:21;;;;;;;3.58;2.10;;;21.80;58.90;;;;;;5031811;28;20116;-65
2022/10/22 01:15:05;;;;;;;3.97;2.05;;;21.70;59.00;;;;;;5032175;28;20120;-66
2022/10/22 01:17:53;;;;;;;3.92;2.22;;;21.80;59.00;;;;;;5033225;28;20040;-66
2022/10/22 01:20:47;;;;;;;3.50;2.38;;;21.80;58.80;;;;;;5042858;28;20041;-65
2022/10/22 01:23:28;;;;;;;4.47;2.60;;;21.80;58.40;;;;;;5053606;28;20049;-65
2022/10/22 01:26:48;;;;;;;4.60;2.03;;;21.90;58.90;;;;;;5053358;28;20037;-65
2022/10/22 01:30:00;;;;;;;3.53;2.35;;;21.90;58.70;;;;;;4954481;28;20054;-65
2022/10/22 01:32:30;;;;;;;3.58;2.33;;;21.80;58.70;;;;;;4876596;29;20119;-65
2022/10/22 01:35:05;;;;;;;2.75;1.60;;;21.80;58.60;;;;;;4883086;29;20044;-65
2022/10/22 01:37:37;;;;;;;5.40;2.28;;;21.90;58.60;;;;;;4860820;29;20206;-65
2022/10/22 01:40:06;;;;;;;4.30;2.30;;;21.90;58.50;;;;;;4876362;29;20129;-65
2022/10/22 01:42:32;;;;;;;4.03;1.90;;;21.90;58.60;;;;;;4875455;29;20041;-65
2022/10/22 01:44:58;;;;;;;4.35;1.67;;;21.90;58.40;;;;;;4875745;29;20476;-65
2022/10/22 01:48:01;;;;;;;4.80;2.38;;;22.00;58.40;;;;;;4876195;29;20059;-64
2022/10/22 01:50:48;;;;;;;3.45;2.40;;;21.80;58.30;;;;;;4876352;29;20057;-65
2022/10/22 01:53:34;;;;;;;3.78;2.33;;;21.90;58.40;;;;;;4876541;29;20051;-65
2022/10/22 01:56:31;;;;;;;3.20;1.70;;;21.90;58.50;;;;;;4802821;29;20043;-65
2022/10/22 01:59:41;;;;;;;2.22;1.60;;;21.80;58.20;;;;;;4802062;29;20542;-65
2022/10/22 02:02:39;;;;;;;3.80;1.75;;;21.70;58.30;;;;;;4762470;29;20152;-66
2022/10/22 02:05:14;;;;;;;4.28;1.88;;;21.80;58.50;;;;;;4821341;29;20034;-65
2022/10/22 02:07:47;;;;;;;3.10;2.00;;;21.70;58.40;;;;;;4894860;29;20076;-66
2022/10/22 02:10:14;;;;;;;2.30;2.10;;;21.70;58.40;;;;;;4894481;29;20047;-65
2022/10/22 02:12:42;;;;;;;6.53;2.17;;;21.80;58.60;;;;;;4877532;29;20048;-65
2022/10/22 02:15:10;;;;;;;5.38;2.30;;;21.90;58.60;;;;;;4891802;29;20116;-65
2022/10/22 02:17:38;;;;;;;3.50;2.10;;;21.80;58.50;;;;;;4894771;29;20051;-65
2022/10/22 02:20:28;;;;;;;2.53;1.85;;;21.90;58.70;;;;;;4893877;29;20052;-65
2022/10/22 02:22:55;;;;;;;8.10;2.20;;;21.80;58.40;;;;;;4857482;29;20136;-65
2022/10/22 02:25:24;;;;;;;3.83;1.90;;;21.70;58.50;;;;;;4857646;29;20090;-65
2022/10/22 02:28:11;;;;;;;2.55;1.85;;;21.80;58.60;;;;;;4857141;29;20053;-65
2022/10/22 02:30:41;;;;;;;3.63;2.05;;;21.80;58.50;;;;;;4843272;29;20036;-66
2022/10/22 02:33:14;;;;;;;4.45;2.20;;;21.80;58.50;;;;;;4893843;29;20173;-66
2022/10/22 02:35:40;;;;;;;;;;;21.80;58.40;;;;;;4948915;29;20075;-65
2022/10/22 02:38:07;;;;;;;5.00;2.10;;;21.70;58.30;;;;;;4935206;29;20008;-65
2022/10/22 02:40:34;;;;;;;2.75;2.13;;;21.70;58.50;;;;;;4958160;28;20097;-65
2022/10/22 02:43:03;;;;;;;2.72;1.50;;;21.70;58.60;;;;;;4969990;28;20492;-65
2022/10/22 02:45:29;;;;;;;6.93;2.30;;;21.70;58.70;;;;;;4970045;28;20035;-65
2022/10/22 02:47:56;;;;;;;4.10;2.05;;;21.70;58.20;;;;;;4968122;28;20150;-65
2022/10/22 02:50:22;;;;;;;7.07;2.97;;;21.80;58.30;;;;;;4972252;28;20042;-65
2022/10/22 02:52:48;;;;;;;2.67;2.15;;;21.60;58.30;;;;;;4981733;28;20113;-65
2022/10/22 02:55:14;;;;;;;3.08;2.10;;;21.70;58.50;;;;;;4989991;28;20100;-65
2022/10/22 02:57:40;;;;;;;3.83;2.22;;;21.70;58.70;;;;;;4990171;28;20038;-64
2022/10/22 03:00:08;;;;;;;3.67;2.30;;;21.60;58.50;;;;;;4969084;28;20046;-65
2022/10/22 03:02:34;;;;;;;6.30;2.72;;;21.60;58.60;;;;;;5032020;28;20540;-65
2022/10/22 03:05:00;;;;;;;6.07;2.67;;;21.60;58.60;;;;;;5045035;28;20029;-65
2022/10/22 03:07:26;;;;;;;2.60;1.60;;;21.60;58.70;;;;;;5031402;28;20057;-66
2022/10/22 03:09:52;;;;;;;2.15;1.77;;;21.60;58.60;;;;;;5031714;28;20101;-66
2022/10/22 03:12:18;;;;;;;3.50;1.85;;;21.70;58.50;;;;;;5031793;28;20056;-66
2022/10/22 03:14:44;;;;;;;3.45;1.90;;;21.70;58.60;;;;;;4995538;28;20034;-65
2022/10/22 03:17:10;;;;;;;2.97;2.47;;;21.60;58.20;;;;;;4992051;28;20467;-66
2022/10/22 03:19:36;;;;;;;5.10;1.92;;;21.70;58.40;;;;;;4991939;28;20117;-65
2022/10/22 03:22:06;;;;;;;2.85;2.15;;;21.70;58.40;;;;;;4991653;28;20424;-65
2022/10/22 03:24:42;;;;;;;2.35;2.13;;;21.70;58.40;;;;;;4992284;28;20034;-66
2022/10/22 03:27:10;;;;;;;3.80;1.92;;;21.70;58.40;;;;;;4991314;28;20065;-65
2022/10/22 03:29:39;;;;;;;2.65;1.77;;;21.70;58.30;;;;;;4992012;28;20039;-65
2022/10/22 03:32:05;;;;;;;4.35;2.40;;;21.70;58.50;;;;;;5004678;28;20025;-63
2022/10/22 03:34:31;;;;;;;2.65;2.38;;;21.70;58.30;;;;;;4954887;28;20057;-65
2022/10/22 03:36:59;;;;;;;3.83;2.38;;;21.60;58.20;;;;;;4990635;28;20057;-65
2022/10/22 03:39:28;;;;;;;5.00;2.38;;;21.70;58.50;;;;;;5004960;28;20053;-65
2022/10/22 03:41:55;;;;;;;3.58;2.30;;;21.70;58.40;;;;;;5030090;28;20084;-65
2022/10/22 03:44:21;;;;;;;4.82;2.63;;;21.70;58.50;;;;;;5014641;28;20386;-65
2022/10/22 03:46:48;;;;;;;5.70;2.08;;;21.70;58.40;;;;;;4974811;28;20034;-64
2022/10/22 03:49:14;;;;;;;3.65;2.17;;;21.60;58.30;;;;;;5012038;28;20030;-65
2022/10/22 03:51:40;;;;;;;4.10;2.50;;;21.70;58.40;;;;;;5009886;28;20092;-65
2022/10/22 03:54:06;;;;;;;6.85;2.47;;;21.70;58.40;;;;;;5011055;28;20488;-65
2022/10/22 03:56:32;;;;;;;7.82;2.80;;;21.60;58.40;;;;;;5010839;28;20018;-65
2022/10/22 03:58:59;;;;;;;6.03;2.55;;;21.50;58.50;;;;;;5002581;28;20352;-65
2022/10/22 04:01:27;;;;;;;6.43;2.65;;;21.60;58.60;;;;;;4993327;28;20129;-65
2022/10/22 04:03:53;;;;;;;7.18;2.40;;;21.50;58.60;;;;;;4991653;28;20042;-65
2022/10/22 04:06:19;;;;;;;3.28;2.22;;;21.50;58.70;;;;;;4992001;28;20471;-64
2022/10/22 04:08:46;;;;;;;3.63;2.42;;;21.50;58.80;;;;;;5010228;28;20050;-65
2022/10/22 04:11:14;;;;;;;4.10;2.38;;;21.50;58.70;;;;;;5030846;28;20035;-65
2022/10/22 04:13:40;;;;;;;3.72;2.15;;;21.50;58.70;;;;;;5030439;28;20470;-65
2022/10/22 04:16:19;;;;;;;5.65;2.58;;;21.50;58.70;;;;;;5029065;28;20121;-65
2022/10/22 04:18:47;;;;;;;5.00;2.65;;;21.60;58.60;;;;;;5043347;28;20039;-65
2022/10/22 04:21:17;;;;;;;4.75;2.45;;;21.50;58.60;;;;;;5050591;28;20482;-65
2022/10/22 04:23:45;;;;;;;4.25;2.50;;;21.70;58.50;;;;;;5050939;28;20098;-65
2022/10/22 04:26:11;;;;;;;5.35;1.90;;;21.60;58.40;;;;;;5029891;28;20049;-65
2022/10/22 04:28:37;;;;;;;3.85;2.33;;;21.60;58.50;;;;;;5014645;28;20041;-64
2022/10/22 04:31:12;;;;;;;3.33;2.53;;;21.50;58.60;;;;;;5028201;28;20437;-65
2022/10/22 04:33:39;;;;;;;7.15;2.92;;;21.50;58.70;;;;;;5034406;28;20084;-65
2022/10/22 04:36:07;;;;;;;3.13;2.00;;;21.50;58.60;;;;;;5029933;28;20076;-65
2022/10/22 04:38:33;;;;;;;6.32;2.40;;;21.60;58.40;;;;;;5031908;28;20108;-65
2022/10/22 04:41:11;;;;;;;3.35;2.40;;;21.60;58.20;;;;;;5034019;28;20434;-65
2022/10/22 04:43:37;;;;;;;6.43;3.20;;;21.70;58.10;;;;;;5032773;28;20420;-63
2022/10/22 04:46:03;;;;;;;4.45;2.30;;;21.70;58.00;;;;;;5032452;28;20068;-65
2022/10/22 04:48:29;;;;;;;2.85;2.20;;;21.80;58.00;;;;;;5047379;28;20629;-65
2022/10/22 04:50:57;;;;;;;4.45;2.42;;;21.80;58.00;;;;;;5054248;28;20028;-65
2022/10/22 04:53:23;;;;;;;6.03;2.50;;;21.80;57.90;;;;;;5053850;28;20401;-65
2022/10/22 04:55:49;;;;;;;5.20;2.28;;;21.90;57.90;;;;;;5036724;28;20076;-65
2022/10/22 04:58:15;;;;;;;6.03;2.55;;;21.80;57.60;;;;;;5034219;28;20076;-65
2022/10/22 05:00:41;;;;;;;6.60;2.70;;;21.90;57.50;;;;;;5034364;28;20032;-66
2022/10/22 05:03:07;;;;;;;4.50;3.03;;;21.80;57.60;;;;;;5031681;28;20038;-65
2022/10/22 05:05:33;;;;;;;10.50;3.03;;;21.70;57.80;;;;;;5031777;28;20085;-65
2022/10/22 05:07:59;;;;;;;6.88;2.95;;;21.60;58.10;;;;;;5032447;28;20085;-65
2022/10/22 05:10:25;;;;;;;4.90;2.78;;;21.60;58.50;;;;;;5031117;28;20034;-65
2022/10/22 05:12:51;;;;;;;2.67;1.73;;;21.40;50.50;;;;;;5032660;28;20033;-66
2022/10/22 05:15:17;;;;;;;2.67;1.73;;;21.50;50.10;;;;;;5028748;28;20032;-67
2022/10/22 05:17:43;;;;;;;1.35;1.25;;;21.50;49.50;;;;;;5028427;28;20107;-66
2022/10/22 05:20:09;;;;;;;2.42;1.75;;;21.60;49.00;;;;;;5030239;28;20048;-65
2022/10/22 05:22:35;;;;;;;3.13;1.83;;;21.60;47.20;;;;;;5032903;28;20112;-65
2022/10/22 05:25:01;;;;;;;2.78;1.70;;;21.70;46.70;;;;;;5014502;28;20125;-65
2022/10/22 05:27:27;;;;;;;5.40;2.22;;;21.70;46.30;;;;;;5032937;28;20026;-65
2022/10/22 05:29:53;;;;;;;5.22;2.83;;;21.70;46.50;;;;;;5030222;28;20072;-65
2022/10/22 05:32:19;;;;;;;5.47;3.72;;;21.70;46.90;;;;;;5033175;28;20100;-64
2022/10/22 05:34:45;;;;;;;7.88;5.43;;;21.80;46.10;;;;;;5053596;28;20035;-65
2022/10/22 05:37:11;;;;;;;9.43;6.18;;;21.80;47.20;;;;;;5039268;28;20045;-62
2022/10/22 05:39:39;;;;;;;10.32;6.53;;;22.00;47.70;;;;;;5032299;28;20053;-65
2022/10/22 05:42:05;;;;;;;13.88;7.55;;;22.00;47.50;;;;;;5028287;28;20470;-65
2022/10/22 05:44:31;;;;;;;7.03;3.00;;;22.00;47.70;;;;;;5028726;28;20117;-67
2022/10/22 05:46:57;;;;;;;4.65;2.45;;;22.20;60.60;;;;;;5029069;28;20171;-67
2022/10/22 05:49:23;;;;;;;1.95;1.55;;;22.20;59.00;;;;;;5045718;28;20482;-66
2022/10/22 05:51:49;;;;;;;3.17;1.77;;;22.30;49.40;;;;;;5024294;28;20069;-64
2022/10/22 05:54:18;;;;;;;3.35;1.50;;;22.40;47.10;;;;;;5039077;28;20053;-60
2022/10/22 05:56:45;;;;;;;1.70;1.60;;;22.40;45.80;;;;;;5037849;28;20033;-64
2022/10/22 05:59:11;;;;;;;5.82;2.83;;;22.50;46.30;;;;;;5041056;28;20041;-65
2022/10/22 06:01:38;;;;;;;9.23;3.42;;;22.60;54.90;;;;;;5032382;28;20033;-65
2022/10/22 06:04:06;;;;;;;5.00;2.67;;;22.60;56.80;;;;;;5035151;28;20017;-64
2022/10/22 06:06:44;;;;;;;6.70;3.03;;;22.60;57.00;;;;;;5029008;28;20037;-65
2022/10/22 06:09:22;;;;;;;4.75;2.63;;;22.70;57.80;;;;;;5011764;28;20052;-64
2022/10/22 06:11:49;;;;;;;7.60;3.05;;;22.80;59.20;;;;;;5029381;28;20040;-66
2022/10/22 06:14:17;;;;;;;5.78;2.45;;;22.90;61.30;;;;;;5032188;28;20136;-65
2022/10/22 06:16:43;;;;;;;6.30;2.65;;;22.70;61.80;;;;;;5032250;28;20033;-66
2022/10/22 06:19:11;;;;;;;6.45;2.80;;;22.70;63.60;;;;;;5030223;28;20033;-65
2022/10/22 06:21:37;;;;;;;5.82;2.50;;;22.70;62.80;;;;;;5048626;28;20037;-65
2022/10/22 06:24:03;;;;;;;4.97;2.80;;;22.70;62.20;;;;;;5037647;28;20091;-65
2022/10/22 06:26:30;;;;;;;5.15;3.30;;;22.70;62.30;;;;;;5032545;28;20124;-65
2022/10/22 06:28:57;;;;;;;5.68;2.78;;;22.80;61.60;;;;;;5031569;28;20102;-66
2022/10/22 06:31:24;;;;;;;3.13;2.72;;;22.60;60.30;;;;;;5031726;28;20030;-64
2022/10/22 06:33:51;;;;;;;6.75;2.85;;;22.80;61.00;;;;;;5031287;28;20035;-65
2022/10/22 06:36:19;;;;;;;4.68;2.53;;;22.70;60.40;;;;;;5026613;28;20030;-65
2022/10/22 06:38:46;;;;;;;4.57;2.75;;;22.60;62.90;;;;;;5029571;28;20122;-65
2022/10/22 06:41:14;;;;;;;2.50;1.98;;;22.70;62.50;;;;;;5030485;28;20104;-67
2022/10/22 06:43:44;;;;;;;4.18;2.58;;;22.90;62.10;;;;;;5029510;28;20075;-66
2022/10/22 06:46:10;;;;;;;4.40;2.70;;;22.90;61.30;;;;;;5027870;28;20040;-65
2022/10/22 06:48:39;;;;;;;3.70;2.70;;;22.90;60.50;;;;;;5010952;28;20045;-67
2022/10/22 06:51:07;;;;;;;8.25;3.47;;;23.00;59.90;;;;;;5029841;28;20041;-66
2022/10/22 06:53:34;;;;;;;10.88;3.30;;;23.10;59.00;;;;;;5020835;28;20041;-65
2022/10/22 06:56:12;;;;;;;9.73;3.58;;;23.00;58.80;;;;;;5029956;28;20076;-65
2022/10/22 06:58:38;;;;;;;5.05;2.70;;;23.10;59.50;;;;;;5023744;28;20037;-64
2022/10/22 07:01:13;;;;;;;3.38;2.47;;;23.10;60.40;;;;;;5027562;28;20047;-64
2022/10/22 07:03:40;;;;;;;3.75;2.25;;;23.30;59.80;;;;;;5027196;28;20041;-65
2022/10/22 07:06:12;;;;;;;2.85;0.98;;;23.20;59.60;;;;;;5030165;28;20036;-65
2022/10/22 07:08:39;;;;;;;3.08;2.80;;;23.30;60.70;;;;;;5012582;28;20475;-65
2022/10/22 07:11:09;;;;;;;3.10;2.78;;;23.50;58.70;;;;;;5037077;28;20052;-65
2022/10/22 07:13:35;;;;;;;2.35;2.13;;;23.40;56.90;;;;;;5027242;28;20041;-66
2022/10/22 07:16:02;;;;;;;6.57;3.25;;;23.50;54.90;;;;;;5029133;28;20033;-64
2022/10/22 07:18:29;;;;;;;4.85;3.17;;;23.40;55.10;;;;;;5022469;28;20074;-65
2022/10/22 07:20:55;;;;;;;5.40;3.45;;;23.40;55.80;;;;;;5012002;28;20443;-65
2022/10/22 07:23:21;;;;;;;7.15;3.35;;;23.40;55.90;;;;;;5020026;28;20163;-65
2022/10/22 07:25:47;;;;;;;5.57;2.80;;;23.40;56.30;;;;;;5029323;28;20187;-64
2022/10/22 07:28:13;;;;;;;5.38;3.30;;;23.40;56.40;;;;;;5040293;28;20486;-64
2022/10/22 07:30:40;;;;;;;8.57;2.95;;;23.40;56.50;;;;;;5027261;28;20696;-65
2022/10/22 07:33:07;;;;;;;8.57;3.33;;;23.50;56.80;;;;;;4993363;28;20041;-65
2022/10/22 07:35:35;;;;;;;5.55;3.72;;;23.40;52.20;;;;;;5030853;28;20026;-69
2022/10/22 07:38:01;;;;;;;7.18;3.45;;;23.40;56.20;;;;;;5021731;28;20363;-61
2022/10/22 07:40:27;;;;;;;7.47;4.18;;;23.40;56.10;;;;;;5009300;28;20487;-63
2022/10/22 07:42:53;;;;;;;6.78;3.78;;;23.30;56.20;;;;;;5028600;28;20055;-64
2022/10/22 07:45:19;;;;;;;9.65;3.78;;;23.40;55.20;;;;;;5028008;28;20052;-65
2022/10/22 07:47:46;;;;;;;5.70;3.92;;;23.30;56.80;;;;;;5029697;28;20041;-65
2022/10/22 07:50:12;;;;;;;9.15;4.05;;;23.40;56.80;;;;;;5011173;28;20056;-63
2022/10/22 07:52:38;;;;;;;6.55;3.60;;;23.30;56.90;;;;;;5031674;28;20056;-65
2022/10/22 07:55:05;;;;;;;11.20;3.70;;;23.30;57.50;;;;;;5034243;28;20478;-64
2022/10/22 07:57:31;;;;;;;7.50;4.22;;;23.20;57.50;;;;;;5029061;28;20037;-64
2022/10/22 07:59:58;;;;;;;5.70;3.60;;;23.30;56.80;;;;;;5030834;28;20029;-63
2022/10/22 08:02:24;;;;;;;6.15;4.05;;;23.30;57.10;;;;;;5031606;28;20366;-64
2022/10/22 08:04:50;;;;;;;7.50;4.55;;;23.40;57.10;;;;;;5021362;28;20042;-64
2022/10/22 08:07:17;;;;;;;15.80;6.82;;;23.20;57.90;;;;;;5030662;28;20052;-64
2022/10/22 08:09:44;;;;;;;15.23;7.63;;;23.30;59.20;;;;;;5031030;28;20041;-62
2022/10/22 08:12:10;;;;;;;13.90;9.23;;;23.40;61.00;;;;;;5032234;28;20136;-64
2022/10/22 08:14:36;;;;;;;31.83;14.57;;;23.30;61.90;;;;;;5024660;28;20375;-65
2022/10/22 08:17:02;;;;;;;16.23;9.73;;;23.30;62.50;;;;;;5014972;28;20037;-64
2022/10/22 08:19:28;;;;;;;23.60;10.90;;;23.50;62.00;;;;;;5015010;28;20029;-64
2022/10/22 08:21:54;;;;;;;12.07;5.32;;;23.40;61.20;;;;;;5018670;28;20036;-65
2022/10/22 08:24:20;;;;;;;7.20;5.53;;;23.40;59.40;;;;;;5034675;28;20033;-65
2022/10/22 08:26:46;;;;;;;33.60;11.68;;;23.50;59.00;;;;;;5028413;28;20366;-64
2022/10/22 08:29:12;;;;;;;8.38;5.18;;;23.20;52.40;;;;;;5032123;28;20046;-65
2022/10/22 08:31:38;;;;;;;9.00;4.43;;;23.40;60.30;;;;;;5028036;28;20394;-65
2022/10/22 08:34:04;;;;;;;7.68;4.00;;;23.50;62.30;;;;;;5028931;28;20057;-65
2022/10/22 08:36:30;;;;;;;12.07;4.85;;;23.60;63.70;;;;;;5049506;28;20453;-65
2022/10/22 08:38:56;;;;;;;15.98;5.60;;;23.50;63.20;;;;;;5038005;28;20083;-64
2022/10/22 08:41:23;;;;;;;8.13;5.35;;;23.50;62.00;;;;;;5034085;28;20029;-65
2022/10/22 08:43:52;;;;;;;6.47;4.55;;;23.40;61.10;;;;;;5033455;28;20045;-64
2022/10/22 08:46:18;;;;;;;7.97;4.65;;;23.50;60.50;;;;;;5030947;28;20548;-66
2022/10/22 08:49:08;;;;;;;9.95;4.97;;;23.50;59.90;;;;;;5026926;28;20049;-64
2022/10/22 08:51:39;;;;;;;8.48;4.47;;;23.30;59.50;;;;;;5029299;28;20120;-65
2022/10/22 08:54:25;;;;;;;8.45;4.47;;;23.40;59.00;;;;;;5032014;28;20061;-65
2022/10/22 08:57:17;;;;;;;6.53;4.18;;;23.30;58.70;;;;;;5027420;28;20045;-64
2022/10/22 09:00:07;;;;;;;20.02;6.15;;;23.40;58.70;;;;;;4988255;28;20046;-65
2022/10/22 09:03:08;;;;;;;8.30;4.70;;;23.40;58.50;;;;;;4987994;28;20494;-64
2022/10/22 09:05:50;;;;;;;10.75;4.05;;;23.40;58.50;;;;;;4966164;28;20042;-65
2022/10/22 09:08:18;;;;;;;7.63;4.10;;;23.40;58.30;;;;;;4964304;28;20043;-66
2022/10/22 09:10:50;;;;;;;7.18;4.15;;;23.20;58.20;;;;;;4951531;28;20043;-64
2022/10/22 09:13:20;;;;;;;13.82;4.53;;;23.30;58.50;;;;;;4952658;28;20023;-65
2022/10/22 09:15:55;;;;;;;7.10;4.75;;;23.40;59.00;;;;;;4952829;28;20182;-65
2022/10/22 09:18:39;;;;;;;10.55;4.95;;;23.40;58.40;;;;;;4933708;29;20138;-65
2022/10/22 09:21:23;;;;;;;8.38;3.78;;;23.30;58.20;;;;;;4932422;29;20035;-65
2022/10/22 09:24:03;;;;;;;12.73;4.82;;;23.20;58.00;;;;;;4910355;29;20031;-66
2022/10/22 09:26:35;;;;;;;7.63;4.00;;;23.20;58.40;;;;;;4931415;29;20031;-67
2022/10/22 09:29:01;;;;;;;9.13;4.78;;;23.20;60.10;;;;;;4933203;29;20043;-67
2022/10/22 09:31:30;;;;;;;10.57;4.47;;;23.20;63.50;;;;;;4928855;29;20047;-67
2022/10/22 09:34:20;;;;;;;7.55;4.05;;;23.20;61.60;;;;;;4922390;29;20080;-67
2022/10/22 09:36:46;;;;;;;7.47;5.15;;;23.30;60.40;;;;;;4935460;29;20385;-67
2022/10/22 09:39:27;;;;;;;6.05;3.90;;;23.20;55.00;;;;;;4951142;29;20050;-67
2022/10/22 09:41:53;;;;;;;5.53;3.88;;;23.20;56.80;;;;;;4964270;28;20068;-64
2022/10/22 09:44:19;;;;;;;8.00;3.95;;;23.20;56.00;;;;;;4995786;28;20070;-65
2022/10/22 09:46:46;;;;;;;7.90;3.10;;;23.30;49.80;;;;;;4989779;28;20069;-66
2022/10/22 09:49:15;;;;;;;7.78;3.17;;;23.30;50.90;;;;;;5002115;28;20123;-66
2022/10/22 09:51:57;;;;;;;4.68;2.80;;;23.40;47.30;;;;;;5028734;28;20041;-67
2022/10/22 09:54:24;;;;;;;4.93;3.15;;;23.40;47.50;;;;;;5012310;28;20116;-67
2022/10/22 09:57:20;;;;;;;8.50;3.40;;;23.50;47.40;;;;;;5028698;28;20136;-65
2022/10/22 10:00:08;;;;;;;29.00;5.53;;;23.40;46.70;;;;;;4955720;28;20474;-66
2022/10/22 10:02:39;;;;;;;11.65;3.47;;;23.60;49.10;;;;;;4977955;28;20045;-66
2022/10/22 10:05:06;;;;;;;7.72;3.70;;;23.60;49.40;;;;;;4978847;28;20134;-65
2022/10/22 10:07:33;;;;;;;4.60;3.40;;;23.60;53.10;;;;;;4981611;28;20102;-63
2022/10/22 10:09:59;;;;;;;17.05;4.90;;;23.70;52.70;;;;;;4958166;28;20642;-64
2022/10/22 10:12:40;;;;;;;7.80;3.85;;;23.70;51.50;;;;;;4954516;28;20629;-65
2022/10/22 10:15:16;;;;;;;6.43;3.88;;;23.90;56.30;;;;;;4967830;28;20159;-66
2022/10/22 10:18:22;;;;;;;5.20;3.28;;;24.00;57.80;;;;;;4958524;28;20063;-68
2022/10/22 10:21:07;;;;;;;5.75;3.60;;;24.00;50.30;;;;;;4954792;28;20139;-66
2022/10/22 10:23:51;;;;;;;6.55;3.72;;;23.90;51.10;;;;;;4936624;28;20080;-66
2022/10/22 10:26:53;;;;;;;9.15;3.47;;;24.10;52.50;;;;;;4959083;28;20035;-66
2022/10/22 10:30:06;;;;;;;5.82;3.60;;;24.20;54.00;;;;;;4959649;28;20035;-67
2022/10/22 10:32:56;;;;;;;5.03;3.55;;;24.20;54.80;;;;;;4879145;29;20465;-67
2022/10/22 10:35:42;;;;;;;8.25;3.58;;;24.30;54.40;;;;;;4908268;29;20084;-68
2022/10/22 10:38:31;;;;;;;5.53;3.80;;;24.10;53.40;;;;;;4936305;28;20075;-67
2022/10/22 10:41:09;;;;;;;10.27;4.72;;;24.10;56.90;;;;;;4944296;29;20036;-67
2022/10/22 10:43:56;;;;;;;6.55;3.83;;;24.10;65.40;;;;;;4948779;29;20039;-68
2022/10/22 10:46:28;;;;;;;7.03;4.07;;;24.30;58.40;;;;;;4946591;29;20035;-67
2022/10/22 10:49:24;;;;;;;6.63;3.63;;;24.30;60.70;;;;;;4947910;29;20131;-68
2022/10/22 10:52:12;;;;;;;9.88;4.30;;;24.30;62.70;;;;;;4888583;29;20105;-68
2022/10/22 10:55:00;;;;;;;6.82;4.20;;;24.40;63.90;;;;;;4872062;29;20049;-67
2022/10/22 10:57:35;;;;;;;6.55;3.45;;;24.30;65.10;;;;;;4872934;29;20060;-67
2022/10/22 11:00:01;;;;;;;5.88;3.63;;;24.40;67.30;;;;;;4872945;29;20116;-67
2022/10/22 11:02:36;;;;;;;6.03;3.47;;;24.40;69.50;;;;;;4881199;29;20168;-67
2022/10/22 11:05:29;;;;;;;4.75;3.75;;;24.60;65.10;;;;;;4866135;29;20048;-65
2022/10/22 11:08:17;;;;;;;9.02;4.40;;;24.50;61.50;;;;;;4950761;29;20074;-66
2022/10/22 11:10:47;;;;;;;7.03;3.83;;;24.50;60.40;;;;;;4951019;28;20039;-66
2022/10/22 11:13:30;;;;;;;6.18;3.65;;;24.40;61.80;;;;;;4934929;29;20130;-67
2022/10/22 11:16:19;;;;;;;5.70;3.33;;;24.60;64.30;;;;;;4950594;29;20039;-68
2022/10/22 11:18:51;;;;;;;6.63;3.70;;;24.80;69.40;;;;;;4858078;29;20553;-68
2022/10/22 11:21:51;;;;;;;6.18;3.75;;;25.00;75.70;;;;;;4874454;29;20033;-68
2022/10/22 11:24:25;;;;;;;4.60;3.38;;;25.20;73.40;;;;;;4944960;28;20047;-68
2022/10/22 11:27:02;;;;;;;8.75;3.72;;;25.20;77.10;;;;;;4945292;28;20039;-68
2022/10/22 11:29:34;;;;;;;5.57;3.88;;;25.30;79.30;;;;;;4947583;29;20114;-69
2022/10/22 11:32:01;;;;;;;12.38;3.97;;;25.30;78.60;;;;;;4944125;28;20122;-68
2022/10/22 11:34:35;;;;;;;6.05;3.65;;;25.30;73.80;;;;;;4937292;28;20035;-68
2022/10/22 11:37:03;;;;;;;8.82;4.38;;;25.20;66.50;;;;;;4949343;28;20125;-66
2022/10/22 11:39:52;;;;;;;8.35;4.13;;;25.10;63.40;;;;;;4938858;28;20404;-66
2022/10/22 11:42:43;;;;;;;7.50;4.20;;;25.10;63.70;;;;;;4923283;28;20170;-66
2022/10/22 11:45:15;;;;;;;8.18;4.45;;;25.00;62.60;;;;;;4933138;28;20044;-67
2022/10/22 11:47:52;;;;;;;8.40;4.15;;;25.00;61.70;;;;;;4932228;29;20054;-66
2022/10/22 11:50:42;;;;;;;7.75;4.65;;;24.90;62.10;;;;;;4933955;28;20051;-67
2022/10/22 11:53:14;;;;;;;5.75;3.70;;;24.90;61.90;;;;;;4939804;29;20098;-67
2022/10/22 11:55:49;;;;;;;8.27;4.22;;;24.90;61.40;;;;;;4985482;28;20060;-67
2022/10/22 11:58:43;;;;;;;6.47;3.83;;;25.00;61.30;;;;;;5040645;28;20040;-67
2022/10/22 12:01:09;;;;;;;7.75;3.70;;;24.70;61.20;;;;;;4950161;28;20047;-66
2022/10/22 12:03:53;;;;;;;10.07;4.43;;;24.90;61.50;;;;;;4948695;29;20053;-66
2022/10/22 12:06:24;;;;;;;5.55;3.97;;;24.80;61.00;;;;;;4952439;28;20031;-67
2022/10/22 12:08:53;;;;;;;8.95;4.30;;;24.80;60.40;;;;;;4956165;28;21900;-67
2022/10/22 12:11:48;;;;;;;4.35;3.28;;;24.70;54.90;;;;;;4950187;29;20043;-66
2022/10/22 12:14:40;;;;;;;5.78;3.53;;;24.70;57.20;;;;;;4877544;29;20032;-65
2022/10/22 12:17:13;;;;;;;5.93;3.42;;;24.70;54.60;;;;;;4893341;29;20047;-66
2022/10/22 12:19:39;;;;;;;8.25;3.58;;;24.80;56.30;;;;;;4893303;29;20048;-66
2022/10/22 12:22:21;;;;;;;6.97;3.72;;;24.80;57.00;;;;;;4892853;29;20044;-66
2022/10/22 12:24:49;;;;;;;3.90;3.30;;;24.80;57.00;;;;;;4880724;29;20144;-66
2022/10/22 12:27:21;;;;;;;7.30;4.15;;;24.70;58.10;;;;;;4874405;29;20049;-66
2022/10/22 12:29:48;;;;;;;9.45;4.07;;;24.70;57.80;;;;;;4884388;29;20051;-66
2022/10/22 12:32:15;;;;;;;7.45;4.03;;;24.70;57.30;;;;;;4893027;29;20089;-66
2022/10/22 12:34:51;;;;;;;4.68;3.55;;;24.60;57.60;;;;;;4892798;29;20132;-66
2022/10/22 12:37:18;;;;;;;6.50;4.20;;;24.50;57.90;;;;;;4910261;28;20450;-66
2022/10/22 12:39:45;;;;;;;4.65;3.33;;;24.50;56.70;;;;;;4969022;28;20392;-66
2022/10/22 12:42:16;;;;;;;10.07;3.75;;;24.50;57.20;;;;;;4969491;28;20043;-66
2022/10/22 12:44:43;;;;;;;4.78;2.80;;;24.40;54.50;;;;;;4959330;28;20133;-66
2022/10/22 12:47:15;;;;;;;9.35;4.30;;;24.40;56.80;;;;;;4950767;28;20038;-66
2022/10/22 12:49:45;;;;;;;5.93;3.83;;;24.50;56.50;;;;;;4969409;28;20113;-66
2022/10/22 12:52:21;;;;;;;8.50;5.28;;;24.30;58.30;;;;;;4978704;28;20034;-66
2022/10/22 12:54:53;;;;;;;8.52;4.10;;;24.30;58.50;;;;;;5027889;28;20130;-66
2022/10/22 12:57:20;;;;;;;7.05;3.65;;;24.40;58.50;;;;;;5013357;28;20103;-66
2022/10/22 12:59:50;;;;;;;4.45;3.72;;;24.30;58.60;;;;;;5048007;28;20041;-66
2022/10/22 13:02:16;;;;;;;8.75;4.25;;;24.30;58.70;;;;;;5054286;28;20359;-66
2022/10/22 13:04:41;;;;;;;5.78;3.72;;;24.30;58.60;;;;;;5001853;28;20448;-67
2022/10/22 13:07:13;;;;;;;3.92;2.95;;;24.30;58.70;;;;;;5053731;28;20053;-66
2022/10/22 13:09:45;;;;;;;7.60;4.33;;;24.30;58.90;;;;;;5050595;28;20350;-66